sensor_id;sensor_type;location;lat;lon;timestamp;P1;durP1;ratioP1;P2;durP2;ratioP2
52614;SDS011;38508;53.158;6.614;2022-07-29T00:01:45;3.42;;;0.77;;
52614;SDS011;38508;53.158;6.614;2022-07-29T00:04:11;3.05;;;0.70;;
52614;SDS011;38508;53.158;6.614;2022-07-29T00:06:37;2.47;;;0.80;;
52614;SDS011;38508;53.158;6.614;2022-07-29T00:09:02;2.63;;;0.70;;
52614;SDS011;38508;53.158;6.614;2022-07-29T00:11:28;3.63;;;0.77;;
52614;SDS011;38508;53.158;6.614;2022-07-29T00:13:54;2.08;;;0.85;;
52614;SDS011;38508;53.158;6.614;2022-07-29T00:16:20;1.90;;;0.65;;
52614;SDS011;38508;53.158;6.614;2022-07-29T00:18:45;2.83;;;0.80;;
52614;SDS011;38508;53.158;6.614;2022-07-29T00:21:11;4.53;;;1.00;;
52614;SDS011;38508;53.158;6.614;2022-07-29T00:23:37;1.67;;;0.73;;
52614;SDS011;38508;53.158;6.614;2022-07-29T00:26:02;2.13;;;0.90;;
52614;SDS011;38508;53.158;6.614;2022-07-29T00:28:28;4.32;;;0.90;;
52614;SDS011;38508;53.158;6.614;2022-07-29T00:30:54;1.90;;;0.60;;
52614;SDS011;38508;53.158;6.614;2022-07-29T00:33:19;3.60;;;0.95;;
52614;SDS011;38508;53.158;6.614;2022-07-29T00:35:45;2.45;;;0.77;;
52614;SDS011;38508;53.158;6.614;2022-07-29T00:38:15;2.08;;;1.00;;
52614;SDS011;38508;53.158;6.614;2022-07-29T00:40:42;2.30;;;0.70;;
52614;SDS011;38508;53.158;6.614;2022-07-29T00:43:09;3.75;;;0.80;;
52614;SDS011;38508;53.158;6.614;2022-07-29T00:45:35;3.90;;;0.93;;
52614;SDS011;38508;53.158;6.614;2022-07-29T00:48:01;3.92;;;1.13;;
52614;SDS011;38508;53.158;6.614;2022-07-29T00:50:28;2.55;;;0.90;;
52614;SDS011;38508;53.158;6.614;2022-07-29T00:52:54;3.05;;;0.85;;
52614;SDS011;38508;53.158;6.614;2022-07-29T00:55:20;3.25;;;1.00;;
52614;SDS011;38508;53.158;6.614;2022-07-29T00:57:46;2.85;;;1.40;;
52614;SDS011;38508;53.158;6.614;2022-07-29T01:00:13;6.43;;;1.52;;
52614;SDS011;38508;53.158;6.614;2022-07-29T01:02:42;3.42;;;1.10;;
52614;SDS011;38508;53.158;6.614;2022-07-29T01:05:08;4.40;;;0.95;;
52614;SDS011;38508;53.158;6.614;2022-07-29T01:07:37;3.22;;;1.02;;
52614;SDS011;38508;53.158;6.614;2022-07-29T01:10:04;3.53;;;1.10;;
52614;SDS011;38508;53.158;6.614;2022-07-29T01:12:32;2.95;;;1.08;;
52614;SDS011;38508;53.158;6.614;2022-07-29T01:15:00;4.80;;;2.05;;
52614;SDS011;38508;53.158;6.614;2022-07-29T01:19:58;4.38;;;1.20;;
52614;SDS011;38508;53.158;6.614;2022-07-29T01:22:52;2.45;;;0.90;;
52614;SDS011;38508;53.158;6.614;2022-07-29T01:30:56;3.15;;;1.05;;
52614;SDS011;38508;53.158;6.614;2022-07-29T01:33:25;4.80;;;1.00;;
52614;SDS011;38508;53.158;6.614;2022-07-29T01:36:13;4.35;;;1.05;;
52614;SDS011;38508;53.158;6.614;2022-07-29T01:38:42;4.38;;;1.08;;
52614;SDS011;38508;53.158;6.614;2022-07-29T01:41:14;4.00;;;0.88;;
52614;SDS011;38508;53.158;6.614;2022-07-29T01:46:20;3.50;;;0.90;;
52614;SDS011;38508;53.158;6.614;2022-07-29T01:48:57;5.35;;;1.00;;
52614;SDS011;38508;53.158;6.614;2022-07-29T01:51:31;2.97;;;1.00;;
52614;SDS011;38508;53.158;6.614;2022-07-29T01:56:58;7.47;;;1.38;;
52614;SDS011;38508;53.158;6.614;2022-07-29T01:59:25;2.17;;;0.77;;
52614;SDS011;38508;53.158;6.614;2022-07-29T02:01:55;6.32;;;1.38;;
52614;SDS011;38508;53.158;6.614;2022-07-29T02:04:23;4.93;;;1.10;;
52614;SDS011;38508;53.158;6.614;2022-07-29T02:06:51;3.70;;;1.10;;
52614;SDS011;38508;53.158;6.614;2022-07-29T02:09:19;4.05;;;0.82;;
52614;SDS011;38508;53.158;6.614;2022-07-29T02:11:51;3.28;;;0.95;;
52614;SDS011;38508;53.158;6.614;2022-07-29T02:14:21;2.75;;;1.17;;
52614;SDS011;38508;53.158;6.614;2022-07-29T02:16:48;3.58;;;1.40;;
52614;SDS011;38508;53.158;6.614;2022-07-29T02:19:18;2.15;;;0.80;;
52614;SDS011;38508;53.158;6.614;2022-07-29T02:21:46;5.68;;;1.10;;
52614;SDS011;38508;53.158;6.614;2022-07-29T02:24:13;3.05;;;1.10;;
52614;SDS011;38508;53.158;6.614;2022-07-29T02:26:41;1.80;;;1.10;;
52614;SDS011;38508;53.158;6.614;2022-07-29T02:29:08;3.67;;;1.10;;
52614;SDS011;38508;53.158;6.614;2022-07-29T02:31:36;4.38;;;1.05;;
52614;SDS011;38508;53.158;6.614;2022-07-29T02:34:05;4.00;;;1.10;;
52614;SDS011;38508;53.158;6.614;2022-07-29T02:36:33;1.65;;;1.10;;
52614;SDS011;38508;53.158;6.614;2022-07-29T02:39:00;5.43;;;1.30;;
52614;SDS011;38508;53.158;6.614;2022-07-29T02:42:27;5.00;;;1.17;;
52614;SDS011;38508;53.158;6.614;2022-07-29T02:44:30;2.60;;;1.00;;
52614;SDS011;38508;53.158;6.614;2022-07-29T02:55:24;4.78;;;1.30;;
52614;SDS011;38508;53.158;6.614;2022-07-29T02:57:57;5.75;;;1.27;;
52614;SDS011;38508;53.158;6.614;2022-07-29T03:00:31;4.82;;;1.30;;
52614;SDS011;38508;53.158;6.614;2022-07-29T03:03:00;4.75;;;1.35;;
52614;SDS011;38508;53.158;6.614;2022-07-29T03:05:30;1.77;;;1.00;;
52614;SDS011;38508;53.158;6.614;2022-07-29T03:08:03;3.28;;;1.23;;
52614;SDS011;38508;53.158;6.614;2022-07-29T03:10:31;4.88;;;1.20;;
52614;SDS011;38508;53.158;6.614;2022-07-29T03:12:57;3.20;;;1.02;;
52614;SDS011;38508;53.158;6.614;2022-07-29T03:15:23;4.93;;;1.10;;
52614;SDS011;38508;53.158;6.614;2022-07-29T03:17:50;2.45;;;0.90;;
52614;SDS011;38508;53.158;6.614;2022-07-29T03:20:17;4.75;;;0.90;;
52614;SDS011;38508;53.158;6.614;2022-07-29T03:22:43;4.47;;;1.15;;
52614;SDS011;38508;53.158;6.614;2022-07-29T03:25:14;3.92;;;1.00;;
52614;SDS011;38508;53.158;6.614;2022-07-29T03:27:42;3.67;;;0.98;;
52614;SDS011;38508;53.158;6.614;2022-07-29T03:30:08;3.58;;;1.20;;
52614;SDS011;38508;53.158;6.614;2022-07-29T03:32:34;6.80;;;1.58;;
52614;SDS011;38508;53.158;6.614;2022-07-29T03:35:00;3.60;;;1.10;;
52614;SDS011;38508;53.158;6.614;2022-07-29T03:37:27;6.53;;;1.42;;
52614;SDS011;38508;53.158;6.614;2022-07-29T03:39:53;2.75;;;1.00;;
52614;SDS011;38508;53.158;6.614;2022-07-29T03:42:22;4.03;;;1.13;;
52614;SDS011;38508;53.158;6.614;2022-07-29T03:44:54;4.65;;;1.23;;
52614;SDS011;38508;53.158;6.614;2022-07-29T03:47:22;2.53;;;1.27;;
52614;SDS011;38508;53.158;6.614;2022-07-29T03:49:55;2.13;;;1.10;;
52614;SDS011;38508;53.158;6.614;2022-07-29T03:52:24;6.68;;;1.30;;
52614;SDS011;38508;53.158;6.614;2022-07-29T03:54:50;2.80;;;1.30;;
52614;SDS011;38508;53.158;6.614;2022-07-29T03:57:17;3.05;;;1.20;;
52614;SDS011;38508;53.158;6.614;2022-07-29T03:59:48;3.75;;;1.08;;
52614;SDS011;38508;53.158;6.614;2022-07-29T04:02:16;5.93;;;1.40;;
52614;SDS011;38508;53.158;6.614;2022-07-29T04:04:42;4.43;;;1.20;;
52614;SDS011;38508;53.158;6.614;2022-07-29T04:07:08;3.83;;;1.20;;
52614;SDS011;38508;53.158;6.614;2022-07-29T04:09:37;3.10;;;1.08;;
52614;SDS011;38508;53.158;6.614;2022-07-29T04:12:03;5.13;;;1.23;;
52614;SDS011;38508;53.158;6.614;2022-07-29T04:14:30;4.00;;;1.00;;
52614;SDS011;38508;53.158;6.614;2022-07-29T04:16:57;3.42;;;1.10;;
52614;SDS011;38508;53.158;6.614;2022-07-29T04:19:22;5.68;;;1.17;;
52614;SDS011;38508;53.158;6.614;2022-07-29T04:21:48;3.95;;;1.23;;
52614;SDS011;38508;53.158;6.614;2022-07-29T04:24:14;2.85;;;1.20;;
52614;SDS011;38508;53.158;6.614;2022-07-29T04:26:40;3.38;;;1.27;;
52614;SDS011;38508;53.158;6.614;2022-07-29T04:29:05;3.42;;;1.05;;
52614;SDS011;38508;53.158;6.614;2022-07-29T04:31:31;5.40;;;1.80;;
52614;SDS011;38508;53.158;6.614;2022-07-29T04:33:57;9.02;;;1.40;;
52614;SDS011;38508;53.158;6.614;2022-07-29T04:36:22;3.08;;;1.50;;
52614;SDS011;38508;53.158;6.614;2022-07-29T04:38:48;4.57;;;1.23;;
52614;SDS011;38508;53.158;6.614;2022-07-29T04:41:14;3.95;;;1.40;;
52614;SDS011;38508;53.158;6.614;2022-07-29T04:43:39;6.15;;;1.10;;
52614;SDS011;38508;53.158;6.614;2022-07-29T04:46:05;3.97;;;1.00;;
52614;SDS011;38508;53.158;6.614;2022-07-29T04:48:32;3.20;;;1.38;;
52614;SDS011;38508;53.158;6.614;2022-07-29T04:50:58;4.85;;;1.55;;
52614;SDS011;38508;53.158;6.614;2022-07-29T04:53:24;4.75;;;1.23;;
52614;SDS011;38508;53.158;6.614;2022-07-29T04:55:50;4.30;;;1.17;;
52614;SDS011;38508;53.158;6.614;2022-07-29T04:58:15;5.78;;;1.40;;
52614;SDS011;38508;53.158;6.614;2022-07-29T05:00:41;3.60;;;1.30;;
52614;SDS011;38508;53.158;6.614;2022-07-29T05:03:07;4.18;;;1.35;;
52614;SDS011;38508;53.158;6.614;2022-07-29T05:05:32;6.82;;;1.33;;
52614;SDS011;38508;53.158;6.614;2022-07-29T05:07:58;7.90;;;1.20;;
52614;SDS011;38508;53.158;6.614;2022-07-29T05:10:24;6.15;;;1.40;;
52614;SDS011;38508;53.158;6.614;2022-07-29T05:12:50;4.97;;;1.20;;
52614;SDS011;38508;53.158;6.614;2022-07-29T05:15:15;4.63;;;1.00;;
52614;SDS011;38508;53.158;6.614;2022-07-29T05:17:42;4.35;;;1.30;;
52614;SDS011;38508;53.158;6.614;2022-07-29T05:20:08;3.38;;;1.40;;
52614;SDS011;38508;53.158;6.614;2022-07-29T05:22:34;6.05;;;1.17;;
52614;SDS011;38508;53.158;6.614;2022-07-29T05:25:00;3.03;;;1.25;;
52614;SDS011;38508;53.158;6.614;2022-07-29T05:27:26;6.13;;;1.40;;
52614;SDS011;38508;53.158;6.614;2022-07-29T05:29:51;7.15;;;1.45;;
52614;SDS011;38508;53.158;6.614;2022-07-29T05:32:17;4.78;;;1.27;;
52614;SDS011;38508;53.158;6.614;2022-07-29T05:34:43;7.80;;;1.48;;
52614;SDS011;38508;53.158;6.614;2022-07-29T05:37:08;4.20;;;1.40;;
52614;SDS011;38508;53.158;6.614;2022-07-29T05:39:34;5.40;;;1.27;;
52614;SDS011;38508;53.158;6.614;2022-07-29T05:42:00;10.23;;;1.60;;
52614;SDS011;38508;53.158;6.614;2022-07-29T05:44:26;3.60;;;1.10;;
52614;SDS011;38508;53.158;6.614;2022-07-29T05:46:52;3.15;;;1.20;;
52614;SDS011;38508;53.158;6.614;2022-07-29T05:49:17;6.18;;;0.93;;
52614;SDS011;38508;53.158;6.614;2022-07-29T05:51:43;5.38;;;1.35;;
52614;SDS011;38508;53.158;6.614;2022-07-29T05:54:09;4.75;;;1.30;;
52614;SDS011;38508;53.158;6.614;2022-07-29T05:56:35;5.15;;;1.20;;
52614;SDS011;38508;53.158;6.614;2022-07-29T05:59:02;6.03;;;1.50;;
52614;SDS011;38508;53.158;6.614;2022-07-29T06:01:28;3.08;;;1.30;;
52614;SDS011;38508;53.158;6.614;2022-07-29T06:03:54;6.88;;;1.60;;
52614;SDS011;38508;53.158;6.614;2022-07-29T06:06:19;5.70;;;1.30;;
52614;SDS011;38508;53.158;6.614;2022-07-29T06:08:45;4.75;;;1.35;;
52614;SDS011;38508;53.158;6.614;2022-07-29T06:11:10;3.92;;;1.23;;
52614;SDS011;38508;53.158;6.614;2022-07-29T06:13:36;6.28;;;1.30;;
52614;SDS011;38508;53.158;6.614;2022-07-29T06:16:02;5.05;;;1.20;;
52614;SDS011;38508;53.158;6.614;2022-07-29T06:18:29;11.63;;;1.48;;
52614;SDS011;38508;53.158;6.614;2022-07-29T06:20:54;5.70;;;1.40;;
52614;SDS011;38508;53.158;6.614;2022-07-29T06:23:20;4.75;;;1.27;;
52614;SDS011;38508;53.158;6.614;2022-07-29T06:25:46;4.78;;;1.50;;
52614;SDS011;38508;53.158;6.614;2022-07-29T06:28:12;6.57;;;1.17;;
52614;SDS011;38508;53.158;6.614;2022-07-29T06:30:38;5.53;;;1.33;;
52614;SDS011;38508;53.158;6.614;2022-07-29T06:33:04;7.63;;;1.48;;
52614;SDS011;38508;53.158;6.614;2022-07-29T06:35:30;9.43;;;1.30;;
52614;SDS011;38508;53.158;6.614;2022-07-29T06:38:00;4.85;;;1.48;;
52614;SDS011;38508;53.158;6.614;2022-07-29T06:40:26;4.30;;;1.55;;
52614;SDS011;38508;53.158;6.614;2022-07-29T06:43:10;9.10;;;1.58;;
52614;SDS011;38508;53.158;6.614;2022-07-29T06:45:35;3.78;;;1.50;;
52614;SDS011;38508;53.158;6.614;2022-07-29T06:48:01;4.10;;;1.55;;
52614;SDS011;38508;53.158;6.614;2022-07-29T06:50:27;4.18;;;1.25;;
52614;SDS011;38508;53.158;6.614;2022-07-29T06:52:53;4.32;;;1.60;;
52614;SDS011;38508;53.158;6.614;2022-07-29T06:55:18;5.70;;;2.08;;
52614;SDS011;38508;53.158;6.614;2022-07-29T06:57:44;4.15;;;1.17;;
52614;SDS011;38508;53.158;6.614;2022-07-29T07:00:11;1.77;;;1.20;;
52614;SDS011;38508;53.158;6.614;2022-07-29T07:02:37;4.40;;;1.48;;
52614;SDS011;38508;53.158;6.614;2022-07-29T07:05:03;6.97;;;1.48;;
52614;SDS011;38508;53.158;6.614;2022-07-29T07:07:30;3.88;;;1.40;;
52614;SDS011;38508;53.158;6.614;2022-07-29T07:09:56;7.22;;;1.60;;
52614;SDS011;38508;53.158;6.614;2022-07-29T07:12:21;5.03;;;1.70;;
52614;SDS011;38508;53.158;6.614;2022-07-29T07:14:47;5.25;;;1.50;;
52614;SDS011;38508;53.158;6.614;2022-07-29T07:17:13;3.58;;;1.55;;
52614;SDS011;38508;53.158;6.614;2022-07-29T07:19:38;5.10;;;1.50;;
52614;SDS011;38508;53.158;6.614;2022-07-29T07:22:04;5.50;;;1.30;;
52614;SDS011;38508;53.158;6.614;2022-07-29T07:24:30;6.88;;;1.55;;
52614;SDS011;38508;53.158;6.614;2022-07-29T07:26:56;5.57;;;1.67;;
52614;SDS011;38508;53.158;6.614;2022-07-29T07:29:21;6.50;;;1.90;;
52614;SDS011;38508;53.158;6.614;2022-07-29T07:31:47;7.65;;;1.60;;
52614;SDS011;38508;53.158;6.614;2022-07-29T07:34:13;6.38;;;1.63;;
52614;SDS011;38508;53.158;6.614;2022-07-29T07:36:38;5.63;;;1.67;;
52614;SDS011;38508;53.158;6.614;2022-07-29T07:39:04;7.72;;;1.50;;
52614;SDS011;38508;53.158;6.614;2022-07-29T07:41:30;9.95;;;1.75;;
52614;SDS011;38508;53.158;6.614;2022-07-29T07:43:56;7.78;;;1.90;;
52614;SDS011;38508;53.158;6.614;2022-07-29T07:46:21;7.47;;;1.52;;
52614;SDS011;38508;53.158;6.614;2022-07-29T07:48:47;5.82;;;1.63;;
52614;SDS011;38508;53.158;6.614;2022-07-29T07:51:13;3.90;;;1.52;;
52614;SDS011;38508;53.158;6.614;2022-07-29T07:53:38;8.98;;;1.90;;
52614;SDS011;38508;53.158;6.614;2022-07-29T07:56:04;3.67;;;1.70;;
52614;SDS011;38508;53.158;6.614;2022-07-29T07:58:31;5.43;;;1.50;;
52614;SDS011;38508;53.158;6.614;2022-07-29T08:00:57;3.88;;;1.48;;
52614;SDS011;38508;53.158;6.614;2022-07-29T08:03:23;5.15;;;1.38;;
52614;SDS011;38508;53.158;6.614;2022-07-29T08:05:48;7.82;;;1.67;;
52614;SDS011;38508;53.158;6.614;2022-07-29T08:08:16;7.40;;;1.50;;
52614;SDS011;38508;53.158;6.614;2022-07-29T08:10:42;6.95;;;1.77;;
52614;SDS011;38508;53.158;6.614;2022-07-29T08:13:18;4.85;;;1.58;;
52614;SDS011;38508;53.158;6.614;2022-07-29T08:15:48;3.30;;;1.60;;
52614;SDS011;38508;53.158;6.614;2022-07-29T08:18:22;6.55;;;1.90;;
52614;SDS011;38508;53.158;6.614;2022-07-29T08:20:52;5.47;;;1.70;;
52614;SDS011;38508;53.158;6.614;2022-07-29T08:23:18;5.82;;;1.70;;
52614;SDS011;38508;53.158;6.614;2022-07-29T08:25:46;7.53;;;2.20;;
52614;SDS011;38508;53.158;6.614;2022-07-29T08:28:12;5.28;;;1.88;;
52614;SDS011;38508;53.158;6.614;2022-07-29T08:30:38;4.00;;;1.98;;
52614;SDS011;38508;53.158;6.614;2022-07-29T08:33:03;4.68;;;1.88;;
52614;SDS011;38508;53.158;6.614;2022-07-29T08:35:29;8.95;;;1.92;;
52614;SDS011;38508;53.158;6.614;2022-07-29T08:37:55;4.93;;;2.20;;
52614;SDS011;38508;53.158;6.614;2022-07-29T08:40:22;6.55;;;2.15;;
52614;SDS011;38508;53.158;6.614;2022-07-29T08:42:49;7.45;;;1.92;;
52614;SDS011;38508;53.158;6.614;2022-07-29T08:45:15;5.00;;;2.30;;
52614;SDS011;38508;53.158;6.614;2022-07-29T08:47:41;5.55;;;1.70;;
52614;SDS011;38508;53.158;6.614;2022-07-29T08:50:09;5.05;;;1.75;;
52614;SDS011;38508;53.158;6.614;2022-07-29T08:52:36;6.65;;;2.08;;
52614;SDS011;38508;53.158;6.614;2022-07-29T08:55:04;3.95;;;1.90;;
52614;SDS011;38508;53.158;6.614;2022-07-29T08:57:31;4.78;;;1.50;;
52614;SDS011;38508;53.158;6.614;2022-07-29T08:59:58;4.43;;;1.83;;
52614;SDS011;38508;53.158;6.614;2022-07-29T09:02:37;7.03;;;1.80;;
52614;SDS011;38508;53.158;6.614;2022-07-29T09:05:06;7.82;;;2.20;;
52614;SDS011;38508;53.158;6.614;2022-07-29T09:07:33;6.88;;;2.53;;
52614;SDS011;38508;53.158;6.614;2022-07-29T09:09:59;6.53;;;1.90;;
52614;SDS011;38508;53.158;6.614;2022-07-29T09:12:25;3.70;;;1.88;;
52614;SDS011;38508;53.158;6.614;2022-07-29T09:14:51;4.72;;;1.60;;
52614;SDS011;38508;53.158;6.614;2022-07-29T09:17:17;7.70;;;2.20;;
52614;SDS011;38508;53.158;6.614;2022-07-29T09:20:24;6.32;;;1.98;;
52614;SDS011;38508;53.158;6.614;2022-07-29T09:22:49;4.57;;;1.85;;
52614;SDS011;38508;53.158;6.614;2022-07-29T09:25:34;4.65;;;2.05;;
52614;SDS011;38508;53.158;6.614;2022-07-29T09:30:33;8.05;;;1.70;;
52614;SDS011;38508;53.158;6.614;2022-07-29T09:33:01;3.88;;;1.85;;
52614;SDS011;38508;53.158;6.614;2022-07-29T09:35:28;6.70;;;2.08;;
52614;SDS011;38508;53.158;6.614;2022-07-29T09:37:55;4.85;;;1.80;;
52614;SDS011;38508;53.158;6.614;2022-07-29T09:40:25;7.20;;;1.90;;
52614;SDS011;38508;53.158;6.614;2022-07-29T09:42:53;9.10;;;2.08;;
52614;SDS011;38508;53.158;6.614;2022-07-29T09:45:32;8.85;;;2.15;;
52614;SDS011;38508;53.158;6.614;2022-07-29T09:47:59;3.28;;;1.70;;
52614;SDS011;38508;53.158;6.614;2022-07-29T09:50:41;5.93;;;1.92;;
52614;SDS011;38508;53.158;6.614;2022-07-29T09:53:09;5.70;;;2.00;;
52614;SDS011;38508;53.158;6.614;2022-07-29T09:55:48;4.95;;;2.13;;
52614;SDS011;38508;53.158;6.614;2022-07-29T09:58:19;9.85;;;2.88;;
52614;SDS011;38508;53.158;6.614;2022-07-29T10:00:47;7.05;;;2.10;;
52614;SDS011;38508;53.158;6.614;2022-07-29T10:03:15;5.65;;;2.10;;
52614;SDS011;38508;53.158;6.614;2022-07-29T10:05:41;6.90;;;2.08;;
52614;SDS011;38508;53.158;6.614;2022-07-29T10:08:08;5.57;;;2.00;;
52614;SDS011;38508;53.158;6.614;2022-07-29T10:10:39;4.25;;;1.88;;
52614;SDS011;38508;53.158;6.614;2022-07-29T10:13:07;5.57;;;1.95;;
52614;SDS011;38508;53.158;6.614;2022-07-29T10:15:39;4.60;;;2.03;;
52614;SDS011;38508;53.158;6.614;2022-07-29T10:18:08;6.18;;;2.00;;
52614;SDS011;38508;53.158;6.614;2022-07-29T10:20:36;12.57;;;2.50;;
52614;SDS011;38508;53.158;6.614;2022-07-29T10:23:03;9.38;;;2.20;;
52614;SDS011;38508;53.158;6.614;2022-07-29T10:25:29;4.03;;;2.03;;
52614;SDS011;38508;53.158;6.614;2022-07-29T10:27:55;4.43;;;2.50;;
52614;SDS011;38508;53.158;6.614;2022-07-29T10:30:21;6.05;;;1.88;;
52614;SDS011;38508;53.158;6.614;2022-07-29T10:35:29;6.65;;;2.28;;
52614;SDS011;38508;53.158;6.614;2022-07-29T10:44:00;8.05;;;2.00;;
52614;SDS011;38508;53.158;6.614;2022-07-29T10:46:38;7.72;;;2.08;;
52614;SDS011;38508;53.158;6.614;2022-07-29T10:54:16;5.53;;;2.00;;
52614;SDS011;38508;53.158;6.614;2022-07-29T10:56:43;5.63;;;2.05;;
52614;SDS011;38508;53.158;6.614;2022-07-29T11:01:44;9.32;;;2.40;;
52614;SDS011;38508;53.158;6.614;2022-07-29T11:04:14;8.57;;;2.25;;
52614;SDS011;38508;53.158;6.614;2022-07-29T11:09:30;4.57;;;2.33;;
52614;SDS011;38508;53.158;6.614;2022-07-29T11:11:56;9.10;;;2.40;;
52614;SDS011;38508;53.158;6.614;2022-07-29T11:17:24;6.35;;;2.28;;
52614;SDS011;38508;53.158;6.614;2022-07-29T11:19:49;5.95;;;2.65;;
52614;SDS011;38508;53.158;6.614;2022-07-29T11:22:32;6.50;;;2.40;;
52614;SDS011;38508;53.158;6.614;2022-07-29T11:25:15;5.28;;;2.33;;
52614;SDS011;38508;53.158;6.614;2022-07-29T11:27:42;9.23;;;2.88;;
52614;SDS011;38508;53.158;6.614;2022-07-29T11:30:09;8.60;;;3.25;;
52614;SDS011;38508;53.158;6.614;2022-07-29T11:32:38;8.52;;;2.50;;
52614;SDS011;38508;53.158;6.614;2022-07-29T11:43:47;6.55;;;2.80;;
52614;SDS011;38508;53.158;6.614;2022-07-29T11:46:13;8.73;;;2.92;;
52614;SDS011;38508;53.158;6.614;2022-07-29T11:48:42;5.75;;;2.60;;
52614;SDS011;38508;53.158;6.614;2022-07-29T11:51:09;6.63;;;2.10;;
52614;SDS011;38508;53.158;6.614;2022-07-29T11:53:39;10.45;;;2.90;;
52614;SDS011;38508;53.158;6.614;2022-07-29T11:56:07;9.38;;;2.50;;
52614;SDS011;38508;53.158;6.614;2022-07-29T11:58:34;8.07;;;2.50;;
52614;SDS011;38508;53.158;6.614;2022-07-29T12:01:00;4.95;;;2.63;;
52614;SDS011;38508;53.158;6.614;2022-07-29T12:03:26;8.80;;;2.38;;
52614;SDS011;38508;53.158;6.614;2022-07-29T12:05:53;8.68;;;3.03;;
52614;SDS011;38508;53.158;6.614;2022-07-29T12:08:20;11.68;;;2.58;;
52614;SDS011;38508;53.158;6.614;2022-07-29T12:10:47;6.25;;;2.42;;
52614;SDS011;38508;53.158;6.614;2022-07-29T12:13:15;9.35;;;2.97;;
52614;SDS011;38508;53.158;6.614;2022-07-29T12:15:50;6.78;;;2.42;;
52614;SDS011;38508;53.158;6.614;2022-07-29T12:18:18;8.27;;;2.33;;
52614;SDS011;38508;53.158;6.614;2022-07-29T12:20:45;8.70;;;2.63;;
52614;SDS011;38508;53.158;6.614;2022-07-29T12:23:12;10.60;;;2.90;;
52614;SDS011;38508;53.158;6.614;2022-07-29T12:25:40;4.47;;;2.50;;
52614;SDS011;38508;53.158;6.614;2022-07-29T12:28:08;5.82;;;2.30;;
52614;SDS011;38508;53.158;6.614;2022-07-29T12:30:44;7.40;;;2.15;;
52614;SDS011;38508;53.158;6.614;2022-07-29T12:33:14;8.40;;;2.42;;
52614;SDS011;38508;53.158;6.614;2022-07-29T12:36:06;8.60;;;2.20;;
52614;SDS011;38508;53.158;6.614;2022-07-29T12:38:33;4.55;;;1.67;;
52614;SDS011;38508;53.158;6.614;2022-07-29T12:40:59;4.50;;;1.90;;
52614;SDS011;38508;53.158;6.614;2022-07-29T12:43:26;10.32;;;2.60;;
52614;SDS011;38508;53.158;6.614;2022-07-29T12:45:53;7.97;;;1.92;;
52614;SDS011;38508;53.158;6.614;2022-07-29T12:48:36;5.95;;;2.33;;
52614;SDS011;38508;53.158;6.614;2022-07-29T12:51:03;5.78;;;2.33;;
52614;SDS011;38508;53.158;6.614;2022-07-29T12:53:31;7.72;;;2.67;;
52614;SDS011;38508;53.158;6.614;2022-07-29T12:55:57;6.68;;;2.10;;
52614;SDS011;38508;53.158;6.614;2022-07-29T12:58:34;7.00;;;2.20;;
52614;SDS011;38508;53.158;6.614;2022-07-29T13:01:01;9.73;;;2.25;;
52614;SDS011;38508;53.158;6.614;2022-07-29T13:03:27;8.55;;;2.33;;
52614;SDS011;38508;53.158;6.614;2022-07-29T13:05:53;6.45;;;2.20;;
52614;SDS011;38508;53.158;6.614;2022-07-29T13:08:19;4.20;;;1.92;;
52614;SDS011;38508;53.158;6.614;2022-07-29T13:10:45;8.32;;;2.25;;
52614;SDS011;38508;53.158;6.614;2022-07-29T13:13:12;7.32;;;1.88;;
52614;SDS011;38508;53.158;6.614;2022-07-29T13:15:40;4.78;;;1.95;;
52614;SDS011;38508;53.158;6.614;2022-07-29T13:18:40;6.75;;;2.10;;
52614;SDS011;38508;53.158;6.614;2022-07-29T13:21:12;8.10;;;2.10;;
52614;SDS011;38508;53.158;6.614;2022-07-29T13:23:40;6.40;;;2.17;;
52614;SDS011;38508;53.158;6.614;2022-07-29T13:26:08;9.13;;;1.90;;
52614;SDS011;38508;53.158;6.614;2022-07-29T13:28:36;6.03;;;2.53;;
52614;SDS011;38508;53.158;6.614;2022-07-29T13:31:02;6.88;;;1.90;;
52614;SDS011;38508;53.158;6.614;2022-07-29T13:33:29;5.03;;;1.80;;
52614;SDS011;38508;53.158;6.614;2022-07-29T13:35:55;6.20;;;2.13;;
52614;SDS011;38508;53.158;6.614;2022-07-29T13:38:21;4.57;;;1.83;;
52614;SDS011;38508;53.158;6.614;2022-07-29T13:40:47;4.93;;;1.85;;
52614;SDS011;38508;53.158;6.614;2022-07-29T13:43:13;5.75;;;1.80;;
52614;SDS011;38508;53.158;6.614;2022-07-29T13:45:39;7.38;;;2.00;;
52614;SDS011;38508;53.158;6.614;2022-07-29T13:48:05;4.35;;;1.70;;
52614;SDS011;38508;53.158;6.614;2022-07-29T13:50:31;4.90;;;1.70;;
52614;SDS011;38508;53.158;6.614;2022-07-29T13:52:57;5.93;;;1.73;;
52614;SDS011;38508;53.158;6.614;2022-07-29T13:55:23;5.55;;;1.33;;
52614;SDS011;38508;53.158;6.614;2022-07-29T13:57:49;4.78;;;1.45;;
52614;SDS011;38508;53.158;6.614;2022-07-29T14:00:15;5.40;;;1.40;;
52614;SDS011;38508;53.158;6.614;2022-07-29T14:02:41;3.30;;;1.20;;
52614;SDS011;38508;53.158;6.614;2022-07-29T14:05:07;9.82;;;2.00;;
52614;SDS011;38508;53.158;6.614;2022-07-29T14:07:35;6.47;;;1.75;;
52614;SDS011;38508;53.158;6.614;2022-07-29T14:10:01;3.65;;;1.45;;
52614;SDS011;38508;53.158;6.614;2022-07-29T14:12:27;2.83;;;1.50;;
52614;SDS011;38508;53.158;6.614;2022-07-29T14:14:53;3.78;;;1.70;;
52614;SDS011;38508;53.158;6.614;2022-07-29T14:17:19;8.07;;;1.88;;
52614;SDS011;38508;53.158;6.614;2022-07-29T14:19:44;3.88;;;1.15;;
52614;SDS011;38508;53.158;6.614;2022-07-29T14:22:11;5.43;;;1.60;;
52614;SDS011;38508;53.158;6.614;2022-07-29T14:24:37;6.60;;;1.65;;
52614;SDS011;38508;53.158;6.614;2022-07-29T14:27:06;5.32;;;1.52;;
52614;SDS011;38508;53.158;6.614;2022-07-29T14:29:32;3.72;;;1.38;;
52614;SDS011;38508;53.158;6.614;2022-07-29T14:31:59;4.18;;;1.58;;
52614;SDS011;38508;53.158;6.614;2022-07-29T14:34:24;5.47;;;1.38;;
52614;SDS011;38508;53.158;6.614;2022-07-29T14:36:50;7.43;;;1.77;;
52614;SDS011;38508;53.158;6.614;2022-07-29T14:39:16;5.35;;;1.52;;
52614;SDS011;38508;53.158;6.614;2022-07-29T14:41:42;4.35;;;1.23;;
52614;SDS011;38508;53.158;6.614;2022-07-29T14:44:08;5.60;;;1.55;;
52614;SDS011;38508;53.158;6.614;2022-07-29T14:46:33;5.75;;;1.40;;
52614;SDS011;38508;53.158;6.614;2022-07-29T14:48:59;5.05;;;1.42;;
52614;SDS011;38508;53.158;6.614;2022-07-29T14:51:25;4.43;;;1.30;;
52614;SDS011;38508;53.158;6.614;2022-07-29T14:53:51;5.85;;;1.60;;
52614;SDS011;38508;53.158;6.614;2022-07-29T14:56:17;4.45;;;1.42;;
52614;SDS011;38508;53.158;6.614;2022-07-29T14:58:42;5.00;;;1.65;;
52614;SDS011;38508;53.158;6.614;2022-07-29T15:01:08;4.80;;;1.45;;
52614;SDS011;38508;53.158;6.614;2022-07-29T15:03:34;4.50;;;1.70;;
52614;SDS011;38508;53.158;6.614;2022-07-29T15:05:59;3.97;;;1.40;;
52614;SDS011;38508;53.158;6.614;2022-07-29T15:08:25;4.93;;;1.48;;
52614;SDS011;38508;53.158;6.614;2022-07-29T15:10:53;3.72;;;1.23;;
52614;SDS011;38508;53.158;6.614;2022-07-29T15:13:18;5.38;;;1.40;;
52614;SDS011;38508;53.158;6.614;2022-07-29T15:15:44;4.43;;;1.20;;
52614;SDS011;38508;53.158;6.614;2022-07-29T15:18:10;8.50;;;1.25;;
52614;SDS011;38508;53.158;6.614;2022-07-29T15:20:36;8.23;;;1.50;;
52614;SDS011;38508;53.158;6.614;2022-07-29T15:23:01;3.95;;;1.30;;
52614;SDS011;38508;53.158;6.614;2022-07-29T15:25:27;5.65;;;1.45;;
52614;SDS011;38508;53.158;6.614;2022-07-29T15:27:53;6.72;;;1.50;;
52614;SDS011;38508;53.158;6.614;2022-07-29T15:30:19;4.47;;;1.30;;
52614;SDS011;38508;53.158;6.614;2022-07-29T15:32:44;5.88;;;1.70;;
52614;SDS011;38508;53.158;6.614;2022-07-29T15:35:10;6.05;;;1.48;;
52614;SDS011;38508;53.158;6.614;2022-07-29T15:37:39;5.35;;;1.45;;
52614;SDS011;38508;53.158;6.614;2022-07-29T15:40:05;7.60;;;1.75;;
52614;SDS011;38508;53.158;6.614;2022-07-29T15:42:31;7.43;;;1.55;;
52614;SDS011;38508;53.158;6.614;2022-07-29T15:45:02;4.88;;;1.45;;
52614;SDS011;38508;53.158;6.614;2022-07-29T15:47:29;3.67;;;1.38;;